createdAt,value
2019-02-26T00:01:59.931Z,103727.64
2019-02-26T00:07:01.628Z,103728.22
2019-02-26T00:12:06.448Z,103732.19
2019-02-26T00:17:13.041Z,103741.04
2019-02-26T00:22:16.579Z,103741.81
2019-02-26T00:27:19.594Z,103743.50
2019-02-26T00:32:27.134Z,103744.39
2019-02-26T00:37:31.368Z,103749.70
2019-02-26T00:42:36.159Z,103739.19
2019-02-26T00:47:39.545Z,103737.10
2019-02-26T00:52:43.548Z,103737.66
2019-02-26T00:57:45.560Z,103730.45
2019-02-26T01:02:48.897Z,103714.03
2019-02-26T01:07:52.564Z,103706.33
2019-02-26T01:12:56.494Z,103695.51
2019-02-26T01:18:01.428Z,103690.41
2019-02-26T01:23:03.344Z,103694.52
2019-02-26T01:28:08.384Z,103686.64
2019-02-26T01:33:10.598Z,103678.84
2019-02-26T01:38:14.836Z,103694.11
2019-02-26T01:43:20.033Z,103702.88
2019-02-26T01:48:24.301Z,103707.38
2019-02-26T01:53:28.426Z,103708.90
2019-02-26T01:58:33.481Z,103739.41
2019-02-26T02:03:35.739Z,103729.91
2019-02-26T02:08:41.305Z,103737.56
2019-02-26T02:13:43.777Z,103731.69
2019-02-26T02:18:48.080Z,103730.31
2019-02-26T02:23:50.901Z,103721.79
2019-02-26T02:28:56.506Z,103727.81
2019-02-26T02:34:00.264Z,103728.11
2019-02-26T02:39:02.303Z,103726.56
2019-02-26T02:44:07.524Z,103735.75
2019-02-26T02:49:10.399Z,103726.31
2019-02-26T02:54:20.853Z,103715.53
2019-02-26T02:59:22.318Z,103709.55
2019-02-26T03:04:31.118Z,103701.71
2019-02-26T03:09:43.231Z,103698.14
2019-02-26T03:14:51.069Z,103699.97
2019-02-26T03:19:55.860Z,103700.14
2019-02-26T03:24:59.531Z,103694.52
2019-02-26T03:30:06.943Z,103701.02
2019-02-26T03:35:10.254Z,103703.73
2019-02-26T03:40:17.308Z,103707.39
2019-02-26T03:45:24.794Z,103696.34
2019-02-26T03:50:28.688Z,103699.12
2019-02-26T03:55:33.357Z,103686.22
2019-02-26T04:00:37.636Z,103684.43
2019-02-26T04:05:39.192Z,103680.91
2019-02-26T04:10:41.379Z,103678.34
2019-02-26T04:15:43.695Z,103681.99
2019-02-26T04:20:45.815Z,103685.26
2019-02-26T04:26:34.427Z,103685.64
2019-02-26T04:32:23.559Z,103687.98
2019-02-26T04:38:26.687Z,103688.30
2019-02-26T04:44:31.348Z,103687.56
2019-02-26T04:49:36.194Z,103685.06
2019-02-26T04:54:39.858Z,103678.80
2019-02-26T04:59:43.924Z,103696.44
2019-02-26T05:04:52.648Z,103697.87
2019-02-26T05:09:56.904Z,103692.09
2019-02-26T05:15:00.760Z,103694.70
2019-02-26T05:20:07.295Z,103699.62
2019-02-26T05:25:17.049Z,103690.03
2019-02-26T05:30:21.723Z,103693.48
2019-02-26T05:35:25.276Z,103687.07
2019-02-26T05:40:30.472Z,103693.00
2019-02-26T05:45:35.759Z,103683.13
2019-02-26T05:50:38.462Z,103690.59
2019-02-26T05:55:47.782Z,103692.16
2019-02-26T06:00:49.818Z,103694.48
2019-02-26T06:05:54.933Z,103696.36
2019-02-26T06:11:00.173Z,103694.72
2019-02-26T06:16:04.790Z,103692.20
2019-02-26T06:21:10.233Z,103698.73
2019-02-26T06:26:17.859Z,103692.00
2019-02-26T06:31:22.090Z,103693.70
2019-02-26T06:36:25.781Z,103698.59
2019-02-26T06:41:32.084Z,103686.79
2019-02-26T06:46:35.915Z,103697.53
2019-02-26T06:51:40.483Z,103683.73
2019-02-26T06:56:46.121Z,103685.22
2019-02-26T07:01:55.582Z,103680.12
2019-02-26T07:07:04.439Z,103690.84
2019-02-26T07:12:08.745Z,103688.28
2019-02-26T07:17:13.681Z,103689.66
2019-02-26T07:22:16.488Z,103694.47
2019-02-26T07:27:22.911Z,103687.00
2019-02-26T07:32:28.920Z,103690.28
2019-02-26T07:37:33.266Z,103691.73
2019-02-26T07:42:37.281Z,103684.12
2019-02-26T07:47:41.142Z,103690.20
2019-02-26T07:52:51.665Z,103689.17
2019-02-26T07:57:53.389Z,103686.42
2019-02-26T08:02:58.023Z,103680.75
2019-02-26T08:08:00.863Z,103674.97
2019-02-26T08:13:03.900Z,103675.27
2019-02-26T08:18:09.504Z,103678.97
2019-02-26T08:23:19.896Z,103677.96
2019-02-26T08:28:24.824Z,103680.34
2019-02-26T08:33:27.929Z,103671.22
2019-02-26T08:38:30.310Z,103663.22
2019-02-26T08:43:34.201Z,103664.37
2019-02-26T08:48:36.286Z,103667.17
2019-02-26T08:53:41.094Z,103667.67
2019-02-26T08:58:45.355Z,103670.79
2019-02-26T09:03:50.690Z,103666.08
2019-02-26T09:08:55.155Z,103665.11
2019-02-26T09:13:59.394Z,103676.94
2019-02-26T09:19:01.654Z,103679.05
2019-02-26T09:24:05.406Z,103672.64
2019-02-26T09:29:12.572Z,103674.31
2019-02-26T09:34:16.984Z,103674.16
2019-02-26T09:39:22.946Z,103667.62
2019-02-26T09:44:28.638Z,103662.69
2019-02-26T09:49:33.147Z,103661.66
2019-02-26T09:54:40.453Z,103649.58
2019-02-26T09:59:39.988Z,103650.91
2019-02-26T10:04:45.515Z,103651.36
2019-02-26T10:09:48.580Z,103652.36
2019-02-26T10:14:52.297Z,103642.58
2019-02-26T10:19:59.353Z,103647.35
2019-02-26T10:25:04.627Z,103648.98
2019-02-26T10:30:11.293Z,103644.28
2019-02-26T10:35:18.042Z,103642.64
2019-02-26T10:40:19.713Z,103644.69
2019-02-26T10:45:23.683Z,103638.34
2019-02-26T10:50:31.130Z,103641.08
2019-02-26T10:55:38.410Z,103631.76
2019-02-26T11:00:38.147Z,103624.55
2019-02-26T11:05:45.037Z,103620.55
2019-02-26T11:10:52.194Z,103617.10
2019-02-26T11:15:56.594Z,103615.86
2019-02-26T11:21:00.840Z,103614.23
2019-02-26T11:26:06.113Z,103619.95
2019-02-26T11:31:14.042Z,103614.83
2019-02-26T11:36:16.805Z,103611.42
2019-02-26T11:41:18.960Z,103604.62
2019-02-26T11:46:23.094Z,103604.62
2019-02-26T11:51:24.946Z,103615.49
2019-02-26T11:56:29.028Z,103588.02
2019-02-26T12:01:32.237Z,103599.77
2019-02-26T12:06:42.410Z,103597.25
2019-02-26T12:11:44.621Z,103591.93
2019-02-26T12:16:46.745Z,103579.69
2019-02-26T12:21:49.513Z,103574.70
2019-02-26T12:26:57.287Z,103577.75
2019-02-26T12:32:04.578Z,103575.97
2019-02-26T12:37:11.163Z,103570.82
2019-02-26T12:42:18.474Z,103556.58
2019-02-26T12:47:24.471Z,103553.14
2019-02-26T12:52:26.915Z,103558.17
2019-02-26T12:57:29.659Z,103545.14
2019-02-26T13:02:36.924Z,103543.55
2019-02-26T13:07:38.362Z,103534.05
2019-02-26T13:12:47.133Z,103530.04
2019-02-26T13:17:52.370Z,103525.44
2019-02-26T13:23:00.594Z,103516.22
2019-02-26T13:27:59.860Z,103516.72
2019-02-26T13:33:05.239Z,103507.50
2019-02-26T13:38:09.170Z,103503.39
2019-02-26T13:43:13.931Z,103498.69
2019-02-26T13:48:19.728Z,103487.41
2019-02-26T13:53:26.575Z,103474.65
2019-02-26T13:58:34.036Z,103480.41
2019-02-26T14:03:39.210Z,103462.09
2019-02-26T14:08:41.278Z,103463.77
2019-02-26T14:13:43.314Z,103457.59
2019-02-26T14:18:48.267Z,103455.25
2019-02-26T14:23:52.788Z,103445.70
2019-02-26T14:28:56.294Z,103438.48
2019-02-26T14:34:00.141Z,103432.33
2019-02-26T14:39:04.089Z,103434.08
2019-02-26T14:44:06.145Z,103428.23
2019-02-26T14:49:08.206Z,103426.02
2019-02-26T14:54:10.501Z,103413.69
2019-02-26T14:59:12.586Z,103408.34
2019-02-26T15:04:14.860Z,103402.62
2019-02-26T15:09:18.791Z,103402.78
2019-02-26T15:14:23.917Z,103406.37
2019-02-26T15:19:30.437Z,103406.13
2019-02-26T15:24:40.695Z,103400.59
2019-02-26T15:29:42.835Z,103408.33
2019-02-26T15:34:45.103Z,103403.48
2019-02-26T15:39:47.146Z,103403.92
2019-02-26T15:44:49.178Z,103401.36
2019-02-26T15:49:56.168Z,103390.37
2019-02-26T15:55:01.034Z,103394.48
2019-02-26T16:00:06.186Z,103383.42
2019-02-26T16:05:11.019Z,103389.58
2019-02-26T16:10:13.445Z,103378.08
2019-02-26T16:15:17.528Z,103378.52
2019-02-26T16:20:21.550Z,103381.17
2019-02-26T16:25:26.781Z,103378.13
2019-02-26T16:30:30.598Z,103381.22
2019-02-26T16:35:37.258Z,103382.73
2019-02-26T16:40:39.317Z,103380.03
2019-02-26T16:45:45.761Z,103379.09
2019-02-26T16:50:52.311Z,103369.27
2019-02-26T16:55:54.681Z,103367.16
2019-02-26T17:00:56.707Z,103366.00
2019-02-26T17:05:59.156Z,103372.47
2019-02-26T17:11:01.219Z,103370.61
2019-02-26T17:16:05.745Z,103365.59
2019-02-26T17:21:07.818Z,103366.38
2019-02-26T17:26:09.920Z,103371.08
2019-02-26T17:31:11.929Z,103372.33
2019-02-26T17:36:20.861Z,103369.30
2019-02-26T17:41:25.786Z,103374.77
2019-02-26T17:46:28.101Z,103374.77
2019-02-26T17:51:34.096Z,103378.34
2019-02-26T17:56:39.154Z,103388.30
2019-02-26T18:01:44.456Z,103388.95
2019-02-26T18:06:46.512Z,103393.52
2019-02-26T18:11:48.937Z,103392.63
2019-02-26T18:16:51.132Z,103388.52
2019-02-26T18:21:59.186Z,103388.52
2019-02-26T18:27:03.682Z,103388.58
2019-02-26T18:32:05.762Z,103391.14
2019-02-26T18:37:07.880Z,103390.93
2019-02-26T18:42:09.895Z,103397.33
2019-02-26T18:47:14.013Z,103395.14
2019-02-26T18:52:16.635Z,103385.34
2019-02-26T18:57:22.690Z,103388.58
2019-02-26T19:02:26.311Z,103391.36
2019-02-26T19:07:33.105Z,103394.50
2019-02-26T19:12:33.917Z,103405.19
2019-02-26T19:17:36.088Z,103394.72
2019-02-26T19:22:43.211Z,103394.14
2019-02-26T19:27:45.343Z,103390.28
2019-02-26T19:32:48.300Z,103380.66
2019-02-26T19:37:57.124Z,103366.61
2019-02-26T19:42:59.520Z,103366.61
2019-02-26T19:48:01.629Z,103370.22
2019-02-26T19:53:06.006Z,103367.12
2019-02-26T19:58:09.711Z,103367.84
2019-02-26T20:03:13.139Z,103363.23
2019-02-26T20:08:17.837Z,103366.84
2019-02-26T20:13:19.910Z,103365.97
2019-02-26T20:18:25.843Z,103363.26
2019-02-26T20:23:27.306Z,103361.77
2019-02-26T20:28:29.325Z,103358.00
2019-02-26T20:33:31.621Z,103347.61
2019-02-26T20:38:35.289Z,103351.75
2019-02-26T20:43:39.799Z,103348.14
2019-02-26T20:48:41.818Z,103347.20
2019-02-26T20:53:44.509Z,103346.57
2019-02-26T20:58:46.698Z,103340.95
2019-02-26T21:03:49.895Z,103343.89
2019-02-26T21:08:53.319Z,103340.05
2019-02-26T21:13:58.949Z,103333.00
2019-02-26T21:19:02.873Z,103348.46
2019-02-26T21:24:08.997Z,103338.97
2019-02-26T21:29:15.715Z,103340.70
2019-02-26T21:36:36.613Z,103327.44
2019-02-26T21:41:40.775Z,103327.85
2019-02-26T21:46:43.033Z,103323.84
2019-02-26T21:51:47.803Z,103318.44
2019-02-26T21:56:51.877Z,103315.71
2019-02-26T22:01:53.988Z,103319.24
2019-02-26T22:06:56.191Z,103312.52
2019-02-26T22:11:58.462Z,103314.91
2019-02-26T22:17:00.817Z,103315.31
2019-02-26T22:22:05.298Z,103311.42
2019-02-26T22:27:13.453Z,103314.34
2019-02-26T22:32:21.762Z,103306.34
2019-02-26T22:37:25.996Z,103301.52
2019-02-26T22:42:28.139Z,103302.05
2019-02-26T22:47:30.142Z,103298.08
2019-02-26T22:52:35.199Z,103290.59
2019-02-26T22:57:37.221Z,103287.46
2019-02-26T23:02:40.819Z,103279.38
2019-02-26T23:07:46.452Z,103282.67
2019-02-26T23:12:48.630Z,103276.19
2019-02-26T23:17:58.208Z,103273.81
2019-02-26T23:22:57.820Z,103282.66
2019-02-26T23:27:59.858Z,103273.50
2019-02-26T23:33:07.853Z,103273.34
2019-02-26T23:38:14.776Z,103277.39
2019-02-26T23:43:18.892Z,103262.99
2019-02-26T23:48:20.893Z,103255.54
2019-02-26T23:53:22.961Z,103256.08
2019-02-26T23:58:30.713Z,103255.04
